createdAt,value
2019-01-05T00:00:28.691Z,4.59
2019-01-05T00:03:14.790Z,4.59
2019-01-05T00:06:01.320Z,4.60
2019-01-05T00:08:47.800Z,4.63
2019-01-05T00:11:34.319Z,4.63
2019-01-05T00:14:20.780Z,4.65
2019-01-05T00:17:07.332Z,4.65
2019-01-05T00:19:54.097Z,4.65
2019-01-05T00:22:40.588Z,4.67
2019-01-05T00:25:27.527Z,4.67
2019-01-05T00:28:14.070Z,4.68
2019-01-05T00:31:00.501Z,4.69
2019-01-05T00:33:48.162Z,4.69
2019-01-05T00:36:34.892Z,4.71
2019-01-05T00:39:21.421Z,4.71
2019-01-05T00:42:07.949Z,4.72
2019-01-05T00:44:54.454Z,4.72
2019-01-05T00:47:41.205Z,4.74
2019-01-05T00:50:27.702Z,4.75
2019-01-05T00:53:14.415Z,4.76
2019-01-05T01:01:59.016Z,4.82
2019-01-05T01:04:46.711Z,4.83
2019-01-05T01:07:33.147Z,4.86
2019-01-05T01:10:19.641Z,4.88
2019-01-05T01:13:06.466Z,4.88
2019-01-05T01:15:52.962Z,4.93
2019-01-05T01:18:39.759Z,4.93
2019-01-05T01:21:26.280Z,4.97
2019-01-05T01:24:12.978Z,4.97
2019-01-05T01:27:02.448Z,5.00
2019-01-05T01:29:57.183Z,5.02
2019-01-05T01:32:43.624Z,5.03
2019-01-05T01:35:30.407Z,5.05
2019-01-05T01:38:16.857Z,5.10
2019-01-05T01:41:03.643Z,5.11
2019-01-05T01:43:50.090Z,5.13
2019-01-05T01:46:36.846Z,5.16
2019-01-05T01:49:23.305Z,5.17
2019-01-05T01:52:10.485Z,5.17
2019-01-05T01:54:57.003Z,5.19
2019-01-05T01:57:43.780Z,5.20
2019-01-05T02:00:30.208Z,5.22
2019-01-05T02:06:22.177Z,5.25
2019-01-05T02:09:08.940Z,5.25
2019-01-05T02:11:55.371Z,5.26
2019-01-05T02:14:42.192Z,5.28
2019-01-05T02:17:28.630Z,5.30
2019-01-05T02:20:15.459Z,5.30
2019-01-05T02:23:01.924Z,5.30
2019-01-05T02:25:48.419Z,5.31
2019-01-05T02:28:32.208Z,5.33
2019-01-05T02:31:19.408Z,5.33
2019-01-05T02:34:05.848Z,5.35
2019-01-05T02:36:52.629Z,5.35
2019-01-05T02:39:39.062Z,5.36
2019-01-05T02:42:25.857Z,5.37
2019-01-05T02:45:12.329Z,5.37
2019-01-05T02:47:59.087Z,5.40
2019-01-05T02:50:35.353Z,5.40
2019-01-05T02:53:22.100Z,5.41
2019-01-05T02:56:08.608Z,5.42
2019-01-05T02:58:55.341Z,5.42
2019-01-05T03:01:41.857Z,5.44
2019-01-05T03:04:28.598Z,5.45
2019-01-05T03:07:15.094Z,5.45
2019-01-05T03:10:14.174Z,5.48
2019-01-05T03:12:48.175Z,5.48
2019-01-05T03:15:34.972Z,5.48
2019-01-05T03:18:21.391Z,5.50
2019-01-05T03:21:08.186Z,5.53
2019-01-05T03:23:54.729Z,5.54
2019-01-05T03:26:41.198Z,5.56
2019-01-05T03:29:27.713Z,5.56
2019-01-05T03:32:12.011Z,5.59
2019-01-05T03:34:58.538Z,5.64
2019-01-05T03:37:46.180Z,5.64
2019-01-05T03:40:32.618Z,5.68
2019-01-05T03:43:19.409Z,5.72
2019-01-05T03:46:05.949Z,5.72
2019-01-05T03:48:47.690Z,5.76
2019-01-05T03:51:34.170Z,5.76
2019-01-05T03:54:20.983Z,5.80
2019-01-05T03:57:07.535Z,5.81
2019-01-05T03:59:54.262Z,5.85
2019-01-05T04:02:40.805Z,5.85
2019-01-05T04:05:27.512Z,5.86
2019-01-05T04:08:14.011Z,5.88
2019-01-05T04:11:00.879Z,5.88
2019-01-05T04:13:47.328Z,5.90
2019-01-05T04:16:33.855Z,5.90
2019-01-05T04:19:20.291Z,5.92
2019-01-05T04:22:06.805Z,5.92
2019-01-05T04:24:53.497Z,5.94
2019-01-05T04:27:33.927Z,5.95
2019-01-05T04:30:20.371Z,5.95
2019-01-05T04:33:06.855Z,5.97
2019-01-05T04:35:53.552Z,5.98
2019-01-05T04:38:40.046Z,5.98
2019-01-05T04:41:29.819Z,5.99
2019-01-05T04:44:16.274Z,5.99
2019-01-05T04:47:03.029Z,6.02
2019-01-05T04:49:49.464Z,6.02
2019-01-05T04:52:36.254Z,6.02
2019-01-05T04:55:22.720Z,6.02
2019-01-05T04:58:09.505Z,6.02
2019-01-05T05:00:56.024Z,6.03
2019-01-05T05:03:42.716Z,6.04
2019-01-05T05:06:29.214Z,6.05
2019-01-05T05:09:15.713Z,6.09
2019-01-05T05:12:02.249Z,6.09
2019-01-05T05:14:49.037Z,6.09
2019-01-05T05:17:35.531Z,6.11
2019-01-05T05:20:22.234Z,6.11
2019-01-05T05:23:08.738Z,6.13
2019-01-05T05:28:47.445Z,6.15
2019-01-05T05:31:34.210Z,6.18
2019-01-05T05:34:20.693Z,6.19
2019-01-05T05:37:07.459Z,6.19
2019-01-05T05:39:53.950Z,6.22
2019-01-05T05:42:40.385Z,6.23
2019-01-05T05:45:26.911Z,6.24
2019-01-05T05:51:05.265Z,6.26
2019-01-05T05:53:51.976Z,6.28
2019-01-05T05:56:38.490Z,6.33
2019-01-05T05:59:25.271Z,6.35
2019-01-05T06:02:11.726Z,6.38
2019-01-05T06:04:58.248Z,6.39
2019-01-05T06:07:44.739Z,6.39
2019-01-05T06:10:31.529Z,6.45
2019-01-05T06:13:18.050Z,6.45
2019-01-05T06:16:04.762Z,6.49
2019-01-05T06:18:51.321Z,6.49
2019-01-05T06:21:38.083Z,6.56
2019-01-05T06:24:24.576Z,6.59
2019-01-05T06:27:11.061Z,6.60
2019-01-05T06:29:57.582Z,6.60
2019-01-05T06:32:44.338Z,6.63
2019-01-05T06:35:30.872Z,6.66
2019-01-05T06:38:11.421Z,6.69
2019-01-05T06:40:57.954Z,6.70
2019-01-05T06:49:01.200Z,6.88
2019-01-05T06:51:50.212Z,6.96
2019-01-05T06:54:36.669Z,6.99
2019-01-05T06:57:23.423Z,6.98
2019-01-05T07:00:09.990Z,6.98
2019-01-05T07:02:56.434Z,6.98
2019-01-05T07:05:49.326Z,6.98
2019-01-05T07:08:25.508Z,6.97
2019-01-05T07:11:12.509Z,6.97
2019-01-05T07:13:59.394Z,6.95
2019-01-05T07:16:45.883Z,6.95
2019-01-05T07:19:32.412Z,6.94
2019-01-05T07:22:18.909Z,6.94
2019-01-05T07:25:05.345Z,6.94
2019-01-05T07:27:51.841Z,6.95
2019-01-05T07:30:38.298Z,6.95
2019-01-05T07:33:24.816Z,6.94
2019-01-05T07:36:11.278Z,6.94
2019-01-05T07:38:58.204Z,6.93
2019-01-05T07:41:44.681Z,6.94
2019-01-05T07:44:31.183Z,6.94
2019-01-05T07:47:17.679Z,6.94
2019-01-05T07:50:04.173Z,6.94
2019-01-05T07:52:50.618Z,6.94
2019-01-05T07:55:37.174Z,6.94
2019-01-05T07:58:23.597Z,6.94
2019-01-05T08:01:22.578Z,6.94
2019-01-05T08:03:58.574Z,6.94
2019-01-05T08:06:45.062Z,6.94
2019-01-05T08:09:31.584Z,6.94
2019-01-05T08:12:18.398Z,6.94
2019-01-05T08:15:04.937Z,6.95
2019-01-05T08:17:51.370Z,6.94
2019-01-05T08:20:38.362Z,6.95
2019-01-05T08:23:24.799Z,6.95
2019-01-05T08:26:11.294Z,6.95
2019-01-05T08:28:58.043Z,6.94
2019-01-05T08:31:44.532Z,6.93
2019-01-05T08:34:31.012Z,6.93
2019-01-05T08:37:17.508Z,6.95
2019-01-05T08:40:04.041Z,6.95
2019-01-05T08:42:50.468Z,6.95
2019-01-05T08:45:37.018Z,6.95
2019-01-05T08:48:23.450Z,6.95
2019-01-05T08:51:09.955Z,6.95
2019-01-05T08:53:56.470Z,6.95
2019-01-05T08:56:42.982Z,6.97
2019-01-05T08:59:29.526Z,6.97
2019-01-05T09:02:15.993Z,6.96
2019-01-05T09:05:02.506Z,6.98
2019-01-05T09:13:05.835Z,7.02
2019-01-05T09:15:52.312Z,7.02
2019-01-05T09:18:38.793Z,7.02
2019-01-05T09:21:25.308Z,7.03
2019-01-05T09:24:11.747Z,7.03
2019-01-05T09:26:58.265Z,7.03
2019-01-05T09:29:44.706Z,7.04
2019-01-05T09:32:31.204Z,7.04
2019-01-05T09:35:17.665Z,7.05
2019-01-05T09:38:04.196Z,7.05
2019-01-05T09:40:42.659Z,7.05
2019-01-05T09:43:29.151Z,7.07
2019-01-05T09:46:15.583Z,7.07
2019-01-05T09:49:02.137Z,7.07
2019-01-05T09:51:48.599Z,7.08
2019-01-05T09:54:35.086Z,7.09
2019-01-05T09:57:21.624Z,7.10
2019-01-05T10:00:20.508Z,7.10
2019-01-05T10:02:56.215Z,7.11
2019-01-05T10:05:43.037Z,7.13
2019-01-05T10:08:29.964Z,7.15
2019-01-05T10:11:16.466Z,7.15
2019-01-05T10:14:02.938Z,7.15
2019-01-05T10:16:49.455Z,7.17
2019-01-05T10:19:36.346Z,7.17
2019-01-05T10:22:22.809Z,7.17
2019-01-05T10:25:09.306Z,7.18
2019-01-05T10:27:55.813Z,7.17
2019-01-05T10:30:42.241Z,7.19
2019-01-05T10:33:28.667Z,7.20
2019-01-05T10:36:15.183Z,7.20
2019-01-05T10:39:01.671Z,7.23
2019-01-05T10:41:48.178Z,7.23
2019-01-05T10:44:34.712Z,7.24
2019-01-05T10:47:21.133Z,7.27
2019-01-05T10:50:07.650Z,7.27
2019-01-05T10:52:54.121Z,7.29
2019-01-05T10:55:41.055Z,7.30
2019-01-05T10:58:27.521Z,7.30
2019-01-05T11:01:14.000Z,7.32
2019-01-05T11:04:00.468Z,7.31
2019-01-05T11:06:46.989Z,7.32
2019-01-05T11:09:33.512Z,7.31
2019-01-05T11:12:19.974Z,7.31
2019-01-05T11:15:06.475Z,7.32
2019-01-05T11:20:38.286Z,7.36
2019-01-05T11:23:25.087Z,7.36
2019-01-05T11:26:11.599Z,7.49
2019-01-05T11:28:58.494Z,7.52
2019-01-05T11:31:44.928Z,7.52
2019-01-05T11:34:31.427Z,7.52
2019-01-05T11:37:20.210Z,7.50
2019-01-05T11:40:07.117Z,7.51
2019-01-05T11:42:56.105Z,7.48
2019-01-05T11:45:42.589Z,7.48
2019-01-05T11:48:29.025Z,7.47
2019-01-05T11:51:15.874Z,7.47
2019-01-05T11:54:02.383Z,7.47
2019-01-05T11:56:48.809Z,7.45
2019-01-05T11:59:35.300Z,7.44
2019-01-05T12:02:21.784Z,7.44
2019-01-05T12:05:08.288Z,7.43
2019-01-05T12:07:54.755Z,7.43
2019-01-05T12:10:40.750Z,7.42
2019-01-05T12:13:27.249Z,7.42
2019-01-05T12:16:13.751Z,7.44
2019-01-05T12:19:00.180Z,7.44
2019-01-05T12:21:39.628Z,7.44
2019-01-05T12:24:26.067Z,7.42
2019-01-05T12:27:12.572Z,7.42
2019-01-05T12:30:11.741Z,7.42
2019-01-05T12:32:47.218Z,7.41
2019-01-05T12:35:34.108Z,7.40
2019-01-05T12:38:20.661Z,7.39
2019-01-05T12:41:07.114Z,7.39
2019-01-05T12:43:53.367Z,7.39
2019-01-05T12:46:39.833Z,7.40
2019-01-05T12:49:26.319Z,7.41
2019-01-05T12:52:12.800Z,7.41
2019-01-05T12:54:59.309Z,7.41
2019-01-05T12:57:46.128Z,7.41
2019-01-05T13:00:32.597Z,7.41
2019-01-05T13:03:19.105Z,7.41
2019-01-05T13:06:05.590Z,7.41
2019-01-05T13:08:52.019Z,7.41
2019-01-05T13:11:38.538Z,7.41
2019-01-05T13:14:24.965Z,7.41
2019-01-05T13:17:11.499Z,7.40
2019-01-05T13:23:03.181Z,7.40
2019-01-05T13:25:52.038Z,7.40
2019-01-05T13:28:38.566Z,7.41
2019-01-05T13:31:25.118Z,7.39
2019-01-05T13:34:11.633Z,7.39
2019-01-05T13:36:58.159Z,7.39
2019-01-05T13:39:44.695Z,7.39
2019-01-05T13:42:31.986Z,7.38
2019-01-05T13:45:18.469Z,7.38
2019-01-05T13:48:04.944Z,7.38
2019-01-05T13:50:51.390Z,7.38
2019-01-05T13:53:38.200Z,7.37
2019-01-05T13:56:26.909Z,7.36
2019-01-05T13:59:14.252Z,7.36
2019-01-05T14:02:03.011Z,7.35
2019-01-05T14:04:49.685Z,7.35
2019-01-05T14:07:36.199Z,7.34
2019-01-05T14:10:25.180Z,7.31
2019-01-05T14:13:11.675Z,7.31
2019-01-05T14:15:58.213Z,7.31
2019-01-05T14:18:44.737Z,7.30
2019-01-05T14:21:31.169Z,7.31
2019-01-05T14:24:17.707Z,7.31
2019-01-05T14:30:07.070Z,7.30
2019-01-05T14:32:53.583Z,7.30
2019-01-05T14:35:40.092Z,7.27
2019-01-05T14:38:26.531Z,7.27
2019-01-05T14:41:13.096Z,7.25
2019-01-05T14:43:59.547Z,7.24
2019-01-05T14:46:46.121Z,7.24
2019-01-05T14:49:32.550Z,7.24
2019-01-05T14:52:19.097Z,7.23
2019-01-05T14:55:05.548Z,7.21
2019-01-05T14:57:52.085Z,7.19
2019-01-05T15:00:38.522Z,7.19
2019-01-05T15:03:18.830Z,7.18
2019-01-05T15:06:05.361Z,7.16
2019-01-05T15:08:51.876Z,7.14
2019-01-05T15:11:52.339Z,7.12
2019-01-05T15:14:26.501Z,7.12
2019-01-05T15:17:13.313Z,7.11
2019-01-05T15:19:59.860Z,7.10
2019-01-05T15:22:46.293Z,7.08
2019-01-05T15:25:33.061Z,7.07
2019-01-05T15:28:21.378Z,7.04
2019-01-05T15:31:07.873Z,7.04
2019-01-05T15:33:54.445Z,7.02
2019-01-05T15:36:40.894Z,7.02
2019-01-05T15:39:27.984Z,7.01
2019-01-05T15:42:15.519Z,7.01
2019-01-05T15:45:02.042Z,7.00
2019-01-05T15:47:48.501Z,6.97
2019-01-05T15:50:35.024Z,6.96
2019-01-05T15:53:35.145Z,6.95
2019-01-05T15:56:11.731Z,6.95
2019-01-05T15:58:58.254Z,6.94
2019-01-05T16:01:44.734Z,6.94
2019-01-05T16:04:31.185Z,6.94
2019-01-05T16:07:20.195Z,6.94
2019-01-05T16:10:06.701Z,6.94
2019-01-05T16:12:53.166Z,6.94
2019-01-05T16:15:39.660Z,6.93
2019-01-05T16:18:38.643Z,6.93
2019-01-05T16:21:14.315Z,6.91
2019-01-05T16:24:03.502Z,6.91
2019-01-05T16:26:49.968Z,6.90
2019-01-05T16:29:38.365Z,6.91
2019-01-05T16:32:24.830Z,6.90
2019-01-05T16:35:11.338Z,6.90
2019-01-05T16:38:00.722Z,6.90
2019-01-05T16:40:47.211Z,6.89
2019-01-05T16:43:33.650Z,6.87
2019-01-05T16:46:20.161Z,6.88
2019-01-05T16:49:06.668Z,6.88
2019-01-05T16:51:53.194Z,6.88
2019-01-05T16:54:39.721Z,6.89
2019-01-05T16:57:26.340Z,6.87
2019-01-05T17:00:12.995Z,6.86
2019-01-05T17:02:59.615Z,6.86
2019-01-05T17:05:46.134Z,6.85
2019-01-05T17:08:32.616Z,6.83
2019-01-05T17:11:41.590Z,6.83
2019-01-05T17:16:45.994Z,6.84
2019-01-05T17:19:36.457Z,6.82
2019-01-05T17:22:20.621Z,6.82
2019-01-05T17:25:10.089Z,6.80
2019-01-05T17:27:56.577Z,6.78
2019-01-05T17:30:43.328Z,6.78
2019-01-05T17:36:47.629Z,6.76
2019-01-05T17:39:28.442Z,6.77
2019-01-05T17:42:14.926Z,6.77
2019-01-05T17:45:01.433Z,6.76
2019-01-05T17:47:48.349Z,6.76
2019-01-05T17:50:34.836Z,6.76
2019-01-05T17:53:35.336Z,6.76
2019-01-05T17:56:11.275Z,6.77
2019-01-05T17:59:00.269Z,6.76
2019-01-05T18:01:47.066Z,6.76
2019-01-05T18:04:35.247Z,6.77
2019-01-05T18:07:21.793Z,6.77
2019-01-05T18:10:08.257Z,6.77
2019-01-05T18:12:54.785Z,6.75
2019-01-05T18:15:41.243Z,6.75
2019-01-05T18:18:27.736Z,6.75
2019-01-05T18:21:14.172Z,6.74
2019-01-05T18:24:00.685Z,6.75
2019-01-05T18:26:47.948Z,6.75
2019-01-05T18:29:34.443Z,6.76
2019-01-05T18:32:20.961Z,6.75
2019-01-05T18:35:07.465Z,6.75
2019-01-05T18:37:53.919Z,6.75
2019-01-05T18:40:40.413Z,6.76
2019-01-05T18:43:26.887Z,6.76
2019-01-05T18:46:13.450Z,6.75
2019-01-05T18:48:59.881Z,6.75
2019-01-05T18:51:46.490Z,6.74
2019-01-05T18:54:38.034Z,6.76
2019-01-05T18:57:24.633Z,6.76
2019-01-05T19:00:12.497Z,6.74
2019-01-05T19:03:03.173Z,6.75
2019-01-05T19:05:49.615Z,6.75
2019-01-05T19:08:36.097Z,6.75
2019-01-05T19:14:30.261Z,6.75
2019-01-05T19:17:16.724Z,6.75
2019-01-05T19:20:03.273Z,6.74
2019-01-05T19:22:49.704Z,6.75
2019-01-05T19:25:36.213Z,6.73
2019-01-05T19:28:22.652Z,6.75
2019-01-05T19:31:10.513Z,6.75
2019-01-05T19:33:57.080Z,6.74
2019-01-05T19:36:45.389Z,6.73
2019-01-05T19:39:31.889Z,6.72
2019-01-05T19:42:18.347Z,6.72
2019-01-05T19:45:04.860Z,6.72
2019-01-05T19:47:51.330Z,6.72
2019-01-05T19:50:37.822Z,6.73
2019-01-05T19:53:24.245Z,6.72
2019-01-05T19:56:10.744Z,6.71
2019-01-05T19:58:57.203Z,6.71
2019-01-05T20:01:43.692Z,6.69
2019-01-05T20:04:30.151Z,6.70
2019-01-05T20:07:16.674Z,6.68
2019-01-05T20:10:03.115Z,6.68
2019-01-05T20:12:49.644Z,6.68
2019-01-05T20:15:48.161Z,6.67
2019-01-05T20:18:24.230Z,6.67
2019-01-05T20:21:12.964Z,6.68
2019-01-05T20:24:01.369Z,6.68
2019-01-05T20:26:52.500Z,6.69
2019-01-05T20:29:39.062Z,6.69
2019-01-05T20:32:28.087Z,6.69
2019-01-05T20:35:14.518Z,6.69
2019-01-05T20:38:01.006Z,6.69
2019-01-05T20:40:47.548Z,6.68
2019-01-05T20:46:39.190Z,6.69
2019-01-05T20:49:25.731Z,6.68
2019-01-05T20:52:12.195Z,6.67
2019-01-05T20:54:58.728Z,6.68
2019-01-05T20:57:45.244Z,6.68
2019-01-05T21:00:34.489Z,6.68
2019-01-05T21:03:20.294Z,6.68
2019-01-05T21:06:01.663Z,6.68
2019-01-05T21:08:48.577Z,6.68
2019-01-05T21:11:35.040Z,6.68
2019-01-05T21:14:21.537Z,6.68
2019-01-05T21:17:09.181Z,6.68
2019-01-05T21:19:55.750Z,6.68
2019-01-05T21:22:42.188Z,6.68
2019-01-05T21:25:53.602Z,6.67
2019-01-05T21:28:31.992Z,6.67
2019-01-05T21:31:07.731Z,6.67
2019-01-05T21:34:14.845Z,6.67
2019-01-05T21:36:51.249Z,6.67
2019-01-05T21:45:10.815Z,6.68
2019-01-05T21:47:59.737Z,6.68
2019-01-05T21:50:35.303Z,6.67
2019-01-05T21:53:21.782Z,6.67
2019-01-05T21:56:08.240Z,6.66
2019-01-05T21:58:54.761Z,6.66
2019-01-05T22:01:41.202Z,6.66
2019-01-05T22:04:29.909Z,6.66
2019-01-05T22:07:16.411Z,6.68
2019-01-05T22:10:05.743Z,6.68
2019-01-05T22:12:52.663Z,6.68
2019-01-05T22:15:39.180Z,6.68
2019-01-05T22:18:25.712Z,6.68
2019-01-05T22:21:12.219Z,6.69
2019-01-05T22:23:58.770Z,6.68
2019-01-05T22:26:45.211Z,6.68
2019-01-05T22:29:31.735Z,6.69
2019-01-05T22:32:18.195Z,6.68
2019-01-05T22:35:04.742Z,6.68
2019-01-05T22:37:51.228Z,6.68
2019-01-05T22:40:37.693Z,6.68
2019-01-05T22:43:24.228Z,6.67
2019-01-05T22:46:10.660Z,6.66
2019-01-05T22:48:57.173Z,6.65
2019-01-05T22:51:43.605Z,6.65
2019-01-05T22:54:30.403Z,6.63
2019-01-05T22:57:29.301Z,6.63
2019-01-05T23:00:05.046Z,6.64
2019-01-05T23:02:51.544Z,6.64
2019-01-05T23:05:37.974Z,6.64
2019-01-05T23:08:24.480Z,6.63
2019-01-05T23:11:23.225Z,6.63
2019-01-05T23:13:59.126Z,6.63
2019-01-05T23:16:45.572Z,6.62
2019-01-05T23:19:33.881Z,6.62
2019-01-05T23:22:20.264Z,6.63
2019-01-05T23:25:06.793Z,6.63
2019-01-05T23:27:53.298Z,6.63
2019-01-05T23:30:39.799Z,6.63
2019-01-05T23:33:26.229Z,6.64
2019-01-05T23:36:12.751Z,6.63
2019-01-05T23:38:59.235Z,6.63
2019-01-05T23:41:45.701Z,6.62
2019-01-05T23:44:32.213Z,6.62
2019-01-05T23:47:18.758Z,6.61
2019-01-05T23:50:05.287Z,6.61
2019-01-05T23:52:51.741Z,6.61
2019-01-05T23:55:38.274Z,6.59
2019-01-05T23:58:24.842Z,6.59
